Terminal Aerodrome Forecast
Issued by NWS

Home | Current Version | Previous Version | Text Only | Print | Product List | Glossary On
Versions: 1 2 3 4 5 6 7 8 9 10 11 12 13 14 15 16 17 18 19 20 21 22
000
FTUS41 KPBZ 210500 CCA
TAFFKL
TAF COR
KFKL 210544Z 2106/2206 25005KT 5SM -SHRA BR SCT003 OVC006
      TEMPO 2106/2110 BKN003
     FM211400 29005KT 6SM -SHRA OVC015
     FM212300 33005KT P6SM VCSH BKN020
      AMD LTD TO CLD VIS AND WIND=

USA.gov is the U.S. government's official web portal to all federal, state and local government web resources and services.